METAR history Noord Nederlandse Zweefvliegclub (NL-0036)

May 23, 2022

Time Code Weather Temp. Visibility Clouds Wind METAR/SPECI
8:20 am
V
59 °F 6¼ mi+ 13,000 ft 110°   110° 5 kt METAR ETND 230620Z 11005KT 9999 FEW100 BKN130 BKN230 15/09 Q1006 BLU
7:20 am
V
57 °F 6¼ mi+ 10,000 ft 110°   110° 6 kt METAR ETND 230520Z 11006KT 9999 FEW080 BKN100 BKN230 14/08 Q1007 BLU FCST CANCEL
6:20 am
V
54 °F 6¼ mi+ 10,000 ft 100°   100° 4 kt METAR ETND 230420Z 10004KT 9999 FEW080 BKN100 BKN230 12/08 Q1008 BLU BLU
Older data

Download our app

Easy access to all aviation weather on your mobile phone and tablet.
With many features not available on the website, like offline support and a personal airport list.

We and third parties follow your internet behavior on our website with cookies. If you continue, we assume you agree with our cookie policy. Learn more